KEKO/EKO METAR and TAF weather

Enter ICAO airport designator
Station Type Date Time Source
KEKO METAR 2019/08/25 17:56 UTC NOAA

KEKO 251756Z AUTO 27018G22KT 10SM CLR 29/07 A3015 RMK AO2 SLP149 T02890067 10289 20128 58002


Station Type Date Time Source
KEKO Decoded METAR 2019/08/25 17:56 UTC NOAA

Station name not available
Aug 25, 2019 - 01:56 PM EDT / 2019.08.25 1756 UTC
Wind: from the W (270 degrees) at 21 MPH (18 KT) gusting to 25 MPH (22 KT):0
Visibility: 10 mile(s):0
Sky conditions: clear
Temperature: 84.0 F (28.9 C)
Dew Point: 44.1 F (6.7 C)
Relative Humidity: 24%
Pressure (altimeter): 30.15 in. Hg (1020 hPa)
Pressure tendency: 0.01 inches (0.2 hPa) lower than three hours ago
ob: KEKO 251756Z AUTO 27018G22KT 10SM CLR 29/07 A3015 RMK AO2 SLP149 T02890067 10289 20128 58002
cycle: 18

Station Type Date Time Source
KEKO TAF 2019/08/25 18:22 UTC NOAA

TAF KEKO 251720Z 2518/2618 25015KT P6SM SKC
FM251900 27020G30KT P6SM SKC
FM260300 34008KT P6SM SKC
FM260600 VRB05KT P6SM SKC

Example: see airport list